Jepson Prairie Reserve, California Weather observations

Data are for 10 minute period ending at time listed.
 Day   Time   Solar   Ave.   Ave.  Ave.  Vector  Max.   Baro.   Total    
  of    of     Rad.   Air    Rel.  Wind   Wind   Wind  Press.  Precip.   
Year   Day            Temp.  Hum.  Speed  Dir.   Gust                    
2016   (PST)  Kw/m2    F      %     mph   deg.    mph    mb.     in.     
-------------------------------------------------------------------------
 270    8:10   0.34   74.9    50    5.6   316     6.6   1014.6    0.00 
 270    8:20   0.38   76.5    48    5.1   328     6.1   1014.9    0.00 
 270    8:30   0.40   76.5    47    5.3   327     6.5   1014.9    0.00 
 270    8:40   0.43   77.5    44    6.4   320     8.0   1014.9    0.00 
 270    8:50   0.46   78.3    43    5.9   315     7.3   1014.9    0.00 
 270    9:00   0.49   79.2    40    5.9   322     7.7   1014.9    0.00 
 270    9:10   0.51   80.5    38    6.1   332     8.6   1014.9    0.00 
 270    9:20   0.54   81.7    37    6.7   347     8.9   1015.2    0.00 
 270    9:30   0.56   82.3    37    6.4   354     9.3   1015.2    0.00 
 270    9:40   0.59   82.5    36    6.8    13     9.5   1014.9    0.00 
 270    9:50   0.61   82.7    39    5.9    15     9.9   1014.9    0.00 
 270   10:00   0.63   83.9    38    5.4    17     7.5   1014.9    0.00 
 270   10:10   0.65   84.9    34    4.6    38     7.6   1014.9    0.00 
 270   10:20   0.67   85.9    33    4.7    32     8.6   1014.6    0.00 
 270   10:30   0.68   87.0    33    5.4    23    10.2   1014.6    0.00 
 270   10:40   0.70   87.6    32    5.9   355     8.7   1014.6    0.00 
 270   10:50   0.71   88.0    33    5.8    15     8.3   1014.2    0.00 
 270   11:00   0.72   89.2    31    4.4     8     8.2   1014.2    0.00 
 270   11:10   0.73   90.2    31    4.6     8     8.1   1013.9    0.00 
 270   11:20   0.74   91.5    28    4.0   357     7.7   1013.9    0.00 
 270   11:30   0.75   92.4    27    3.1    28     6.1   1013.9    0.00 
 270   11:40   0.75   92.8    26    3.4    28     5.8   1013.5    0.00 
 270   11:50   0.75   94.6    26    1.3    60     3.9   1013.5    0.00 
 270   12:00   0.75   96.2    27    3.0    18     5.7   1013.2    0.00 
 270   12:10   0.75   96.7    26    3.2   344     6.4   1013.2    0.00 
 270   12:20   0.75   98.9    25    1.5   290     4.5   1013.2    0.00 
 270   12:30   0.75  100.4    25    1.6    25     5.9   1012.9    0.00 
 270   12:40   0.74  100.3    24    3.6   162     5.8   1012.9    0.00 
 270   12:50   0.74   99.1    23    2.2    95     4.2   1012.5    0.00 
 270   13:00   0.73   98.7    22    2.8   195     4.5   1012.2    0.00 
 270   13:10   0.72  100.2    22    3.2    97     7.6   1012.2    0.00 
 270   13:20   0.70  101.9    24    3.7   351     7.9   1012.2    0.00 
 270   13:30   0.69  100.8    23    2.6   357     6.2   1011.9    0.00 
 270   13:40   0.67  102.3    22    2.0   337     4.5   1011.9    0.00 
 270   13:50   0.65  101.6    21    3.2   102     5.8   1011.9    0.00 
 270   14:00   0.63  101.7    20    3.6   140     6.4   1011.9    0.00 
 270   14:10   0.62  103.2    17    3.7   249     7.8   1011.5    0.00 
 270   14:20   0.59  103.1    16    2.2   259     6.6   1011.5    0.00 
 270   14:30   0.57  103.5    16    1.6   277     4.2   1011.5    0.00 
 270   14:40   0.55  105.4    17    4.4   276     9.6   1011.2    0.00 
 270   14:50   0.52  106.0    16    5.4   271    10.4   1011.2    0.00 
 270   15:00   0.50  102.8    14    6.5   259    11.0   1011.2    0.00 
 270   15:10   0.47  102.9    14    8.2   223    14.0   1011.2    0.00 
 270   15:20   0.44  102.2    14    9.7   226    14.0   1010.8    0.00 
 270   15:30   0.41  102.6    14    9.2   241    14.1   1010.8    0.00 
 270   15:40   0.38  102.7    14   10.8   215    15.1   1010.8    0.00 
 270   15:50   0.35  102.8    14   10.6   233    15.3   1010.5    0.00 
 270   16:00   0.32  102.5    13   11.9   234    16.0   1010.5    0.00 
 270   16:10   0.29  102.3    13   13.3   230    17.4   1010.5    0.00 
 270   16:20   0.26  101.8    12   13.4   232    17.3   1010.5    0.00 
 270   16:30   0.23  101.6    11   14.4   225    18.5   1010.2    0.00 
 270   16:40   0.20  100.9    12   13.6   223    19.1   1010.2    0.00 
 270   16:50   0.17  100.6    12   12.6   220    16.0   1009.8    0.00 
 270   17:00   0.14  100.0    12   12.4   221    15.7   1009.8    0.00 
 270   17:10   0.11   99.0    12   11.6   221    14.9   1009.8    0.00 
 270   17:20   0.08   97.8    13    9.9   218    12.8   1009.8    0.00 
 270   17:30   0.06   95.7    14    9.1   211    10.6   1009.5    0.00 
 270   17:40   0.03   93.9    15    9.8   208    11.0   1009.5    0.00 
 270   17:50   0.01   91.3    17    9.8   206    11.1   1009.5    0.00 
 270   18:00   0.00   88.8    19    9.4   208    10.6   1009.5    0.00 
 270   18:10   0.00   86.1    21    8.5   208    10.2   1009.5    0.00 
 270   18:20   0.00   84.4    22    9.3   216    11.8   1009.5    0.00 
 270   18:30   0.00   84.0    24   11.7   218    12.8   1009.5    0.00 
 270   18:40   0.00   81.8    25   10.1   219    12.3   1009.8    0.00 
 270   18:50   0.00   78.7    27    8.7   222     9.4   1009.8    0.00 
 270   19:00   0.00   76.1    30    9.2   222    12.2   1010.2    0.00 
 270   19:10   0.00   77.8    28   10.3   233    12.1   1010.2    0.00 
 270   19:20   0.00   77.3    28    8.0   230    10.6   1010.2    0.00 
 270   19:30   0.00   77.1    28    5.4   217     6.8   1010.2    0.00 
 270   19:40   0.00   76.6    29    4.0   209     5.6   1010.5    0.00 
 270   19:50   0.00   76.7    30    6.0   196     7.1   1010.5    0.00 
 270   20:00   0.00   74.7    31    7.8   194     9.2   1010.5    0.00 
 270   20:10   0.00   72.5    34    7.9   192     9.0   1010.8    0.00 
 270   20:20   0.00   73.3    36    9.1   191    10.4   1010.5    0.00 
 270   20:30   0.00   73.7    38   10.1   192    10.6   1010.8    0.00 
 270   20:40   0.00   71.9    40    9.2   196     9.9   1010.8    0.00 
 270   20:50   0.00   73.2    40   11.4   195    12.9   1010.5    0.00 
 270   21:00   0.00   75.9    37   11.0   198    12.6   1010.5    0.00 
 270   21:10   0.00   75.3    38    7.7   207     9.2   1010.5    0.00 
 270   21:20   0.00   75.0    38    7.6   204     9.4   1010.5    0.00 
 270   21:30   0.00   75.3    38    8.7   201    10.2   1010.5    0.00 
 270   21:40   0.00   74.7    40    8.0   202     9.6   1010.5    0.00 
 270   21:50   0.00   74.7    43    8.6   197    10.0   1010.5    0.00 
 270   22:00   0.00   74.3    43    8.6   201    11.5   1010.5    0.00 
 270   22:10   0.00   73.9    43    6.7   207     7.9   1010.5    0.00 
 270   22:20   0.00   72.9    44    5.5   214     7.9   1010.5    0.00 
 270   22:30   0.00   73.0    43    5.5   214     6.6   1010.5    0.00 
 270   22:40   0.00   71.6    45    6.4   209     8.0   1010.5    0.00 
 270   22:50   0.00   71.5    45    7.5   218    10.8   1010.5    0.00 
 270   23:00   0.00   74.4    43   10.0   206    11.7   1010.5    0.00 
 270   23:10   100.00  99999.0   99999  99999.0   99999   99999.0   99999.0   99999.00 
 270   23:20   100.00  99999.0   99999  99999.0   99999   99999.0   99999.0   99999.00 
 270   23:30   100.00  99999.0   99999  99999.0   99999   99999.0   99999.0   99999.00 
 270   23:40   100.00  99999.0   99999  99999.0   99999   99999.0   99999.0   99999.00 
 270   23:50   100.00  99999.0   99999  99999.0   99999   99999.0   99999.0   99999.00 
 271    0:00   0.00   73.8    49    9.9   203    11.5   1010.2    0.00 
 271    0:10   0.00   74.1    49   12.0   197    14.5   1009.8    0.00 
 271    0:20   0.00   74.9    47   13.1   196    15.7   1009.8    0.00 
 271    0:30   0.00   75.7    47   12.1   195    14.2   1009.8    0.00 
 271    0:40   0.00   75.7    47   11.9   200    14.0   1009.8    0.00 
 271    0:50   0.00   75.5    48   12.0   200    14.0   1009.8    0.00 
 271    1:00   0.00   74.3    50   10.0   202    11.5   1009.8    0.00 
 271    1:10   0.00   75.9    52    9.0   202    10.6   1009.8    0.00 
 271    1:20   0.00   78.1    54    8.3   204    10.4   1009.8    0.00 
 271    1:30   0.00   74.0    54    7.7   216     9.2   1009.8    0.00 
 271    1:40   0.00   70.7    58    7.4   225     8.5   1009.8    0.00 
 271    1:50   0.00   64.6    58    7.4   220     8.4   1009.5    0.00 
 271    2:00   0.00   62.5    60    6.8   214     8.4   1009.5    0.00 
 271    2:10   0.00   60.9    57    7.5   229     8.8   1009.5    0.00 
 271    2:20   0.00   61.3    54    7.0   237     7.9   1009.5    0.00 
 271    2:30   0.00   62.1    52    8.2   222     9.9   1009.1    0.00 
 271    2:40   0.00   61.2    53    8.3   224     9.9   1009.1    0.00 
 271    2:50   0.00   60.7    54    7.9   232     9.4   1009.1    0.00 
 271    3:00   0.00   61.4    52    8.2   238    10.0   1009.1    0.00 
 271    3:10   0.00   61.1    51    8.5   235     9.5   1009.5    0.00 
 271    3:20   0.00   61.5    51    7.1   224     9.1   1009.5    0.00 
 271    3:30   0.00   60.4    53    5.8   225     7.2   1009.5    0.00 
 271    3:40   0.00   59.8    54    7.8   217     9.0   1009.5    0.00 
 271    3:50   0.00   60.3    53    6.5   220     8.0   1009.5    0.00 
 271    4:00   0.00   60.9    52    4.9   226     6.4   1009.5    0.00 
 271    4:10   0.00   60.9    52    5.1   224     5.8   1009.5    0.00 
 271    4:20   0.00   59.6    54    5.6   226     6.8   1009.5    0.00 
 271    4:30   0.00   58.9    56    4.5   278     5.4   1009.5    0.00 
 271    4:40   0.00   59.5    54    4.2   282     4.6   1009.5    0.00 
 271    4:50   0.00   59.7    53    3.5   266     5.5   1009.5    0.00 
 271    5:00   0.00   59.3    56    4.5   236     5.5   1009.5    0.00 
 271    5:10   0.00   59.9    58    3.6   248     4.7   1009.5    0.00 
 271    5:20   0.00   59.4    60    4.7   242     5.7   1009.8    0.00 
 271    5:30   0.00   57.7    61    4.4   240     5.6   1009.8    0.00 
 271    5:40   0.00   58.1    62    4.5   248     5.6   1009.8    0.00 
 271    5:50   0.00   57.9    63    3.8   258     4.5   1009.8    0.00 
 271    6:00   0.00   58.4    63    2.9   262     4.8   1009.8    0.00 
 271    6:10   0.01   59.6    62    3.8   274     5.5   1009.8    0.00 
 271    6:20   0.02   59.9    59    3.3   295     4.5   1009.8    0.00 
 271    6:30   0.04   58.6    57    2.4   274     4.0   1009.8    0.00 
 271    6:40   0.07   59.0    58    4.2   258     5.2   1010.2    0.00 
 271    6:50   0.09   59.9    56    3.8   240     5.0   1010.2    0.00 
 271    7:00   0.12   62.2    54    4.7   224     5.7   1010.2    0.00 
 271    7:10   0.15   64.8    53    3.5   211     4.7   1010.5    0.00 
 271    7:20   0.18   67.7    49    2.6   211     3.2   1010.5    0.00 
 271    7:30   0.21   70.4    45    2.0   221     2.6   1010.8    0.00 
 271    7:40   0.24   72.8    42    1.5   240     2.5   1010.8    0.00 
 271    7:50   0.28   75.9    38    1.1   266     2.7   1011.2    0.00 
 271    8:00   0.31   77.8    34    1.8   312     4.3   1011.2    0.00 

Return to Jepson Prairie Reserve graphs page.


Western Regional Climate Center,wrcc@dri.edu